sensor_id;sensor_type;location;lat;lon;timestamp;pressure;altitude;pressure_sealevel;temperature;humidity
56174;BME280;42058;52.308;20.924;2022-12-24T00:02:24;99647.64;;;5.51;100.00
56174;BME280;42058;52.308;20.924;2022-12-24T00:04:50;99648.95;;;5.51;100.00
56174;BME280;42058;52.308;20.924;2022-12-24T00:07:17;99647.64;;;5.51;100.00
56174;BME280;42058;52.308;20.924;2022-12-24T00:09:43;99648.50;;;5.52;100.00
56174;BME280;42058;52.308;20.924;2022-12-24T00:12:09;99646.34;;;5.51;100.00
56174;BME280;42058;52.308;20.924;2022-12-24T00:14:35;99650.26;;;5.51;100.00
56174;BME280;42058;52.308;20.924;2022-12-24T00:17:01;99646.34;;;5.51;100.00
56174;BME280;42058;52.308;20.924;2022-12-24T00:19:27;99648.52;;;5.50;100.00
56174;BME280;42058;52.308;20.924;2022-12-24T00:21:53;99651.13;;;5.50;100.00
56174;BME280;42058;52.308;20.924;2022-12-24T00:24:20;99647.23;;;5.49;100.00
56174;BME280;42058;52.308;20.924;2022-12-24T00:26:46;99635.95;;;5.48;100.00
56174;BME280;42058;52.308;20.924;2022-12-24T00:29:12;99632.86;;;5.50;100.00
56174;BME280;42058;52.308;20.924;2022-12-24T00:31:38;99635.50;;;5.49;100.00
56174;BME280;42058;52.308;20.924;2022-12-24T00:34:04;99640.27;;;5.49;100.00
56174;BME280;42058;52.308;20.924;2022-12-24T00:36:30;99649.39;;;5.49;100.00
56174;BME280;42058;52.308;20.924;2022-12-24T00:38:56;99650.70;;;5.49;100.00
56174;BME280;42058;52.308;20.924;2022-12-24T00:41:23;99645.48;;;5.49;100.00
56174;BME280;42058;52.308;20.924;2022-12-24T00:44:03;99645.91;;;5.50;100.00
56174;BME280;42058;52.308;20.924;2022-12-24T00:46:33;99641.14;;;5.50;100.00
56174;BME280;42058;52.308;20.924;2022-12-24T00:49:00;99645.45;;;5.51;100.00
56174;BME280;42058;52.308;20.924;2022-12-24T00:51:26;99644.61;;;5.50;100.00
56174;BME280;42058;52.308;20.924;2022-12-24T00:53:52;99647.23;;;5.49;100.00
56174;BME280;42058;52.308;20.924;2022-12-24T00:56:19;99646.39;;;5.48;100.00
56174;BME280;42058;52.308;20.924;2022-12-24T00:58:46;99642.47;;;5.48;100.00
56174;BME280;42058;52.308;20.924;2022-12-24T01:01:13;99639.86;;;5.48;100.00
56174;BME280;42058;52.308;20.924;2022-12-24T01:03:39;99642.47;;;5.48;100.00
56174;BME280;42058;52.308;20.924;2022-12-24T01:06:09;99642.47;;;5.48;100.00
56174;BME280;42058;52.308;20.924;2022-12-24T01:08:37;99641.56;;;5.49;100.00
56174;BME280;42058;52.308;20.924;2022-12-24T01:11:04;99640.27;;;5.49;100.00
56174;BME280;42058;52.308;20.924;2022-12-24T01:13:31;99633.73;;;5.49;100.00
56174;BME280;42058;52.308;20.924;2022-12-24T01:15:59;99625.03;;;5.50;100.00
56174;BME280;42058;52.308;20.924;2022-12-24T01:18:25;99632.44;;;5.49;100.00
56174;BME280;42058;52.308;20.924;2022-12-24T01:20:59;99634.19;;;5.49;100.00
56174;BME280;42058;52.308;20.924;2022-12-24T01:23:28;99638.08;;;5.50;100.00
56174;BME280;42058;52.308;20.924;2022-12-24T01:26:01;99646.78;;;5.49;100.00
56174;BME280;42058;52.308;20.924;2022-12-24T01:28:28;99653.37;;;5.48;100.00
56174;BME280;42058;52.308;20.924;2022-12-24T01:30:54;99649.87;;;5.47;100.00
56174;BME280;42058;52.308;20.924;2022-12-24T01:33:20;99647.69;;;5.48;100.00
56174;BME280;42058;52.308;20.924;2022-12-24T01:35:46;99641.63;;;5.48;100.00
56174;BME280;42058;52.308;20.924;2022-12-24T01:38:14;99639.02;;;5.48;100.00
56174;BME280;42058;52.308;20.924;2022-12-24T01:40:41;99649.87;;;5.47;100.00
56174;BME280;42058;52.308;20.924;2022-12-24T01:43:29;99647.73;;;5.45;100.00
56174;BME280;42058;52.308;20.924;2022-12-24T01:46:02;99645.98;;;5.46;100.00
56174;BME280;42058;52.308;20.924;2022-12-24T01:48:35;99650.34;;;5.45;100.00
56174;BME280;42058;52.308;20.924;2022-12-24T01:51:14;99651.66;;;5.45;100.00
56174;BME280;42058;52.308;20.924;2022-12-24T01:53:44;99652.95;;;5.45;100.00
56174;BME280;42058;52.308;20.924;2022-12-24T01:56:12;99655.17;;;5.44;100.00
56174;BME280;42058;52.308;20.924;2022-12-24T01:58:42;99660.41;;;5.43;100.00
56174;BME280;42058;52.308;20.924;2022-12-24T02:01:11;99662.11;;;5.44;100.00
56174;BME280;42058;52.308;20.924;2022-12-24T02:03:37;99664.33;;;5.43;100.00
56174;BME280;42058;52.308;20.924;2022-12-24T02:06:04;99662.56;;;5.43;100.00
56174;BME280;42058;52.308;20.924;2022-12-24T02:08:32;99664.72;;;5.44;100.00
56174;BME280;42058;52.308;20.924;2022-12-24T02:11:14;99658.66;;;5.43;100.00
56174;BME280;42058;52.308;20.924;2022-12-24T02:13:49;99662.11;;;5.44;100.00
56174;BME280;42058;52.308;20.924;2022-12-24T02:22:33;99648.23;;;5.42;100.00
56174;BME280;42058;52.308;20.924;2022-12-24T02:28:42;99654.77;;;5.42;100.00
56174;BME280;42058;52.308;20.924;2022-12-24T02:34:17;99653.48;;;5.40;100.00
56174;BME280;42058;52.308;20.924;2022-12-24T02:36:47;99651.77;;;5.39;100.00
56174;BME280;42058;52.308;20.924;2022-12-24T02:39:28;99653.93;;;5.39;100.00
56174;BME280;42058;52.308;20.924;2022-12-24T02:42:12;99650.92;;;5.38;100.00
56174;BME280;42058;52.308;20.924;2022-12-24T02:45:00;99652.65;;;5.38;100.00
56174;BME280;42058;52.308;20.924;2022-12-24T02:47:31;99650.49;;;5.37;100.00
56174;BME280;42058;52.308;20.924;2022-12-24T02:50:00;99647.88;;;5.37;100.00
56174;BME280;42058;52.308;20.924;2022-12-24T02:52:44;99650.49;;;5.37;100.00
56174;BME280;42058;52.308;20.924;2022-12-24T02:55:14;99649.19;;;5.37;100.00
56174;BME280;42058;52.308;20.924;2022-12-24T02:58:18;99652.67;;;5.36;100.00
56174;BME280;42058;52.308;20.924;2022-12-24T03:01:08;99658.34;;;5.36;100.00
56174;BME280;42058;52.308;20.924;2022-12-24T03:03:56;99658.34;;;5.36;100.00
56174;BME280;42058;52.308;20.924;2022-12-24T03:09:13;99660.50;;;5.36;100.00
56174;BME280;42058;52.308;20.924;2022-12-24T03:12:14;99659.67;;;5.34;100.00
56174;BME280;42058;52.308;20.924;2022-12-24T03:14:43;99662.25;;;5.36;100.00
56174;BME280;42058;52.308;20.924;2022-12-24T03:17:11;99665.34;;;5.34;100.00
56174;BME280;42058;52.308;20.924;2022-12-24T03:19:39;99666.64;;;5.34;100.00
56174;BME280;42058;52.308;20.924;2022-12-24T03:22:08;99663.19;;;5.33;100.00
56174;BME280;42058;52.308;20.924;2022-12-24T03:24:35;99666.21;;;5.33;100.00
56174;BME280;42058;52.308;20.924;2022-12-24T03:27:03;99664.91;;;5.33;100.00
56174;BME280;42058;52.308;20.924;2022-12-24T03:29:31;99661.90;;;5.32;100.00
56174;BME280;42058;52.308;20.924;2022-12-24T03:32:02;99664.96;;;5.31;100.00
56174;BME280;42058;52.308;20.924;2022-12-24T03:34:29;99663.66;;;5.31;100.00
56174;BME280;42058;52.308;20.924;2022-12-24T03:36:56;99658.86;;;5.31;100.00
56174;BME280;42058;52.308;20.924;2022-12-24T03:39:22;99662.77;;;5.31;100.00
56174;BME280;42058;52.308;20.924;2022-12-24T03:41:48;99663.22;;;5.30;100.00
56174;BME280;42058;52.308;20.924;2022-12-24T03:44:15;99661.94;;;5.29;100.00
56174;BME280;42058;52.308;20.924;2022-12-24T03:46:41;99665.41;;;5.29;100.00
56174;BME280;42058;52.308;20.924;2022-12-24T03:49:07;99667.59;;;5.30;100.00
56174;BME280;42058;52.308;20.924;2022-12-24T03:51:33;99664.55;;;5.29;100.00
56174;BME280;42058;52.308;20.924;2022-12-24T03:54:00;99675.41;;;5.30;100.00
56174;BME280;42058;52.308;20.924;2022-12-24T03:56:26;99672.38;;;5.29;100.00
56174;BME280;42058;52.308;20.924;2022-12-24T03:58:53;99677.19;;;5.28;100.00
56174;BME280;42058;52.308;20.924;2022-12-24T04:01:19;99672.85;;;5.27;100.00
56174;BME280;42058;52.308;20.924;2022-12-24T04:03:45;99674.16;;;5.27;100.00
56174;BME280;42058;52.308;20.924;2022-12-24T04:06:14;99683.28;;;5.27;100.00
56174;BME280;42058;52.308;20.924;2022-12-24T04:08:42;99675.45;;;5.27;100.00
56174;BME280;42058;52.308;20.924;2022-12-24T04:11:11;99681.53;;;5.27;100.00
56174;BME280;42058;52.308;20.924;2022-12-24T04:13:38;99676.36;;;5.26;100.00
56174;BME280;42058;52.308;20.924;2022-12-24T04:16:07;99677.67;;;5.26;100.00
56174;BME280;42058;52.308;20.924;2022-12-24T04:18:35;99677.26;;;5.23;100.00
56174;BME280;42058;52.308;20.924;2022-12-24T04:21:02;99666.42;;;5.22;100.00
56174;BME280;42058;52.308;20.924;2022-12-24T04:23:30;99671.64;;;5.22;100.00
56174;BME280;42058;52.308;20.924;2022-12-24T04:26:01;99666.45;;;5.20;100.00
56174;BME280;42058;52.308;20.924;2022-12-24T04:28:29;99662.55;;;5.19;100.00
56174;BME280;42058;52.308;20.924;2022-12-24T04:31:02;99655.58;;;5.19;100.00
56174;BME280;42058;52.308;20.924;2022-12-24T04:33:26;99665.61;;;5.18;100.00
56174;BME280;42058;52.308;20.924;2022-12-24T04:35:52;99662.10;;;5.19;100.00
56174;BME280;42058;52.308;20.924;2022-12-24T04:38:18;99668.17;;;5.20;100.00
56174;BME280;42058;52.308;20.924;2022-12-24T04:40:44;99666.02;;;5.19;100.00
56174;BME280;42058;52.308;20.924;2022-12-24T04:43:10;99665.16;;;5.19;100.00
56174;BME280;42058;52.308;20.924;2022-12-24T04:45:36;99670.36;;;5.20;100.00
56174;BME280;42058;52.308;20.924;2022-12-24T04:48:03;99671.23;;;5.19;100.00
56174;BME280;42058;52.308;20.924;2022-12-24T04:50:29;99665.16;;;5.19;100.00
56174;BME280;42058;52.308;20.924;2022-12-24T04:52:55;99673.86;;;5.18;100.00
56174;BME280;42058;52.308;20.924;2022-12-24T04:55:21;99676.05;;;5.18;100.00
56174;BME280;42058;52.308;20.924;2022-12-24T04:57:47;99679.53;;;5.17;100.00
56174;BME280;42058;52.308;20.924;2022-12-24T05:00:14;99682.14;;;5.17;100.00
56174;BME280;42058;52.308;20.924;2022-12-24T05:02:40;99686.05;;;5.17;100.00
56174;BME280;42058;52.308;20.924;2022-12-24T05:05:06;99687.83;;;5.15;100.00
56174;BME280;42058;52.308;20.924;2022-12-24T05:07:33;99693.89;;;5.16;100.00
56174;BME280;42058;52.308;20.924;2022-12-24T05:09:59;99683.91;;;5.15;100.00
56174;BME280;42058;52.308;20.924;2022-12-24T05:12:25;99686.06;;;5.16;100.00
56174;BME280;42058;52.308;20.924;2022-12-24T05:14:51;99684.38;;;5.13;100.00
56174;BME280;42058;52.308;20.924;2022-12-24T05:17:17;99686.09;;;5.14;100.00
56174;BME280;42058;52.308;20.924;2022-12-24T05:19:44;99682.65;;;5.12;100.00
56174;BME280;42058;52.308;20.924;2022-12-24T05:22:10;99679.20;;;5.10;100.00
56174;BME280;42058;52.308;20.924;2022-12-24T05:24:54;99683.55;;;5.11;100.00
56174;BME280;42058;52.308;20.924;2022-12-24T05:27:39;99686.18;;;5.10;100.00
56174;BME280;42058;52.308;20.924;2022-12-24T05:30:06;99681.44;;;5.08;100.00
56174;BME280;42058;52.308;20.924;2022-12-24T05:32:33;99686.65;;;5.08;100.00
56174;BME280;42058;52.308;20.924;2022-12-24T05:34:59;99682.28;;;5.08;100.00
56174;BME280;42058;52.308;20.924;2022-12-24T05:37:25;99685.77;;;5.07;100.00
56174;BME280;42058;52.308;20.924;2022-12-24T05:39:52;99676.23;;;5.06;100.00
56174;BME280;42058;52.308;20.924;2022-12-24T05:42:18;99693.19;;;5.06;100.00
56174;BME280;42058;52.308;20.924;2022-12-24T05:44:44;99692.34;;;5.06;100.00
56174;BME280;42058;52.308;20.924;2022-12-24T05:47:10;99702.77;;;5.06;100.00
56174;BME280;42058;52.308;20.924;2022-12-24T05:49:36;99700.58;;;5.05;100.00
56174;BME280;42058;52.308;20.924;2022-12-24T05:52:02;99709.69;;;5.07;100.00
56174;BME280;42058;52.308;20.924;2022-12-24T05:54:29;99708.81;;;5.08;100.00
56174;BME280;42058;52.308;20.924;2022-12-24T05:56:55;99709.23;;;5.07;100.00
56174;BME280;42058;52.308;20.924;2022-12-24T05:59:21;99708.81;;;5.08;100.00
56174;BME280;42058;52.308;20.924;2022-12-24T06:01:47;99712.70;;;5.09;100.00
56174;BME280;42058;52.308;20.924;2022-12-24T06:04:13;99713.14;;;5.07;100.00
56174;BME280;42058;52.308;20.924;2022-12-24T06:06:39;99715.36;;;5.06;100.00
56174;BME280;42058;52.308;20.924;2022-12-24T06:09:06;99715.36;;;5.06;100.00
56174;BME280;42058;52.308;20.924;2022-12-24T06:11:32;99713.22;;;5.04;100.00
56174;BME280;42058;52.308;20.924;2022-12-24T06:13:58;99714.09;;;5.03;100.00
56174;BME280;42058;52.308;20.924;2022-12-24T06:16:25;99717.59;;;5.02;100.00
56174;BME280;42058;52.308;20.924;2022-12-24T06:18:52;99721.53;;;5.00;100.00
56174;BME280;42058;52.308;20.924;2022-12-24T06:21:18;99722.83;;;5.00;100.00
56174;BME280;42058;52.308;20.924;2022-12-24T06:23:45;99727.16;;;5.00;100.00
56174;BME280;42058;52.308;20.924;2022-12-24T06:26:14;99721.11;;;4.98;100.00
56174;BME280;42058;52.308;20.924;2022-12-24T06:28:42;99720.26;;;4.97;100.00
56174;BME280;42058;52.308;20.924;2022-12-24T06:31:13;99718.11;;;4.97;100.00
56174;BME280;42058;52.308;20.924;2022-12-24T06:33:40;99722.02;;;4.97;100.00
56174;BME280;42058;52.308;20.924;2022-12-24T06:36:12;99723.73;;;4.96;100.00
56174;BME280;42058;52.308;20.924;2022-12-24T06:38:37;99728.95;;;4.96;100.00
56174;BME280;42058;52.308;20.924;2022-12-24T06:41:07;99734.62;;;4.96;100.00
56174;BME280;42058;52.308;20.924;2022-12-24T06:43:33;99741.98;;;4.96;100.00
56174;BME280;42058;52.308;20.924;2022-12-24T06:46:01;99737.23;;;4.96;100.00
56174;BME280;42058;52.308;20.924;2022-12-24T06:48:28;99734.22;;;4.95;100.00
56174;BME280;42058;52.308;20.924;2022-12-24T06:50:54;99736.39;;;4.94;100.00
56174;BME280;42058;52.308;20.924;2022-12-24T06:53:20;99744.64;;;4.95;100.00
56174;BME280;42058;52.308;20.924;2022-12-24T06:55:48;99740.73;;;4.95;100.00
56174;BME280;42058;52.308;20.924;2022-12-24T06:58:14;99740.30;;;4.94;100.00
56174;BME280;42058;52.308;20.924;2022-12-24T07:00:40;99748.55;;;4.95;100.00
56174;BME280;42058;52.308;20.924;2022-12-24T07:03:06;99745.52;;;4.94;100.00
56174;BME280;42058;52.308;20.924;2022-12-24T07:05:32;99752.94;;;4.93;100.00
56174;BME280;42058;52.308;20.924;2022-12-24T07:07:58;99753.35;;;4.92;100.00
56174;BME280;42058;52.308;20.924;2022-12-24T07:10:25;99764.22;;;4.93;100.00
56174;BME280;42058;52.308;20.924;2022-12-24T07:12:51;99763.36;;;4.93;100.00
56174;BME280;42058;52.308;20.924;2022-12-24T07:15:17;99767.27;;;4.93;100.00
56174;BME280;42058;52.308;20.924;2022-12-24T07:17:45;99761.61;;;4.93;100.00
56174;BME280;42058;52.308;20.924;2022-12-24T07:20:13;99765.97;;;4.93;100.00
56174;BME280;42058;52.308;20.924;2022-12-24T07:22:39;99766.39;;;4.92;100.00
56174;BME280;42058;52.308;20.924;2022-12-24T07:25:06;99774.66;;;4.92;100.00
56174;BME280;42058;52.308;20.924;2022-12-24T07:27:33;99775.58;;;4.89;100.00
56174;BME280;42058;52.308;20.924;2022-12-24T07:29:59;99783.78;;;4.92;100.00
56174;BME280;42058;52.308;20.924;2022-12-24T07:32:25;99782.94;;;4.91;100.00
56174;BME280;42058;52.308;20.924;2022-12-24T07:34:51;99783.35;;;4.91;100.00
56174;BME280;42058;52.308;20.924;2022-12-24T07:37:17;99788.15;;;4.91;100.00
56174;BME280;42058;52.308;20.924;2022-12-24T07:39:44;99798.58;;;4.91;100.00
56174;BME280;42058;52.308;20.924;2022-12-24T07:42:10;99795.53;;;4.90;100.00
56174;BME280;42058;52.308;20.924;2022-12-24T07:44:36;99802.50;;;4.90;100.00
56174;BME280;42058;52.308;20.924;2022-12-24T07:47:02;99807.72;;;4.90;100.00
56174;BME280;42058;52.308;20.924;2022-12-24T07:49:29;99809.47;;;4.89;100.00
56174;BME280;42058;52.308;20.924;2022-12-24T07:51:55;99807.72;;;4.90;100.00
56174;BME280;42058;52.308;20.924;2022-12-24T07:54:21;99807.72;;;4.90;100.00
56174;BME280;42058;52.308;20.924;2022-12-24T07:56:47;99804.66;;;4.90;100.00
56174;BME280;42058;52.308;20.924;2022-12-24T07:59:14;99813.33;;;4.91;100.00
56174;BME280;42058;52.308;20.924;2022-12-24T08:01:40;99810.77;;;4.89;100.00
56174;BME280;42058;52.308;20.924;2022-12-24T08:04:06;99821.22;;;4.88;100.00
56174;BME280;42058;52.308;20.924;2022-12-24T08:06:32;99819.91;;;4.88;100.00
56174;BME280;42058;52.308;20.924;2022-12-24T08:08:58;99820.31;;;4.89;100.00
56174;BME280;42058;52.308;20.924;2022-12-24T08:11:24;99822.08;;;4.87;100.00
56174;BME280;42058;52.308;20.924;2022-12-24T08:13:51;99819.48;;;4.87;100.00
56174;BME280;42058;52.308;20.924;2022-12-24T08:16:17;99819.08;;;4.86;100.00
56174;BME280;42058;52.308;20.924;2022-12-24T08:18:43;99820.39;;;4.84;100.00
56174;BME280;42058;52.308;20.924;2022-12-24T08:21:09;99822.11;;;4.84;100.00
56174;BME280;42058;52.308;20.924;2022-12-24T08:23:36;99818.25;;;4.82;100.00
56174;BME280;42058;52.308;20.924;2022-12-24T08:26:08;99823.48;;;4.80;100.00
56174;BME280;42058;52.308;20.924;2022-12-24T08:28:35;99828.25;;;4.79;100.00
56174;BME280;42058;52.308;20.924;2022-12-24T08:31:02;99831.72;;;4.80;100.00
56174;BME280;42058;52.308;20.924;2022-12-24T08:33:29;99837.81;;;4.80;100.00
56174;BME280;42058;52.308;20.924;2022-12-24T08:35:57;99831.72;;;4.80;100.00
56174;BME280;42058;52.308;20.924;2022-12-24T08:38:25;99846.03;;;4.83;100.00
56174;BME280;42058;52.308;20.924;2022-12-24T08:40:52;99846.47;;;4.83;100.00
56174;BME280;42058;52.308;20.924;2022-12-24T08:43:20;99846.88;;;4.84;100.00
56174;BME280;42058;52.308;20.924;2022-12-24T08:45:47;99846.88;;;4.84;100.00
56174;BME280;42058;52.308;20.924;2022-12-24T08:48:16;99846.45;;;4.86;100.00
56174;BME280;42058;52.308;20.924;2022-12-24T08:50:43;99858.61;;;4.84;100.00
56174;BME280;42058;52.308;20.924;2022-12-24T08:53:10;99860.35;;;4.85;100.00
56174;BME280;42058;52.308;20.924;2022-12-24T08:55:38;99863.39;;;4.86;100.00
56174;BME280;42058;52.308;20.924;2022-12-24T08:58:04;99863.39;;;4.86;100.00
56174;BME280;42058;52.308;20.924;2022-12-24T09:00:30;99861.63;;;4.88;100.00
56174;BME280;42058;52.308;20.924;2022-12-24T09:02:57;99860.32;;;4.88;100.00
56174;BME280;42058;52.308;20.924;2022-12-24T09:05:23;99869.84;;;4.89;100.00
56174;BME280;42058;52.308;20.924;2022-12-24T09:07:50;99862.02;;;4.90;100.00
56174;BME280;42058;52.308;20.924;2022-12-24T09:10:16;99868.95;;;4.93;100.00
56174;BME280;42058;52.308;20.924;2022-12-24T09:12:43;99869.36;;;4.94;100.00
56174;BME280;42058;52.308;20.924;2022-12-24T09:15:09;99869.80;;;4.95;100.00
56174;BME280;42058;52.308;20.924;2022-12-24T09:17:36;99871.50;;;4.96;100.00
56174;BME280;42058;52.308;20.924;2022-12-24T09:20:03;99874.11;;;4.96;100.00
56174;BME280;42058;52.308;20.924;2022-12-24T09:22:34;99881.48;;;4.96;100.00
56174;BME280;42058;52.308;20.924;2022-12-24T09:25:01;99876.70;;;4.97;100.00
56174;BME280;42058;52.308;20.924;2022-12-24T09:27:30;99882.77;;;4.98;100.00
56174;BME280;42058;52.308;20.924;2022-12-24T09:29:56;99885.83;;;4.97;100.00
56174;BME280;42058;52.308;20.924;2022-12-24T09:32:22;99887.14;;;4.96;100.00
56174;BME280;42058;52.308;20.924;2022-12-24T09:34:48;99891.91;;;4.96;100.00
56174;BME280;42058;52.308;20.924;2022-12-24T09:37:18;99888.89;;;4.97;100.00
56174;BME280;42058;52.308;20.924;2022-12-24T09:39:44;99897.11;;;4.98;100.00
56174;BME280;42058;52.308;20.924;2022-12-24T09:47:33;99904.99;;;4.95;100.00
56174;BME280;42058;52.308;20.924;2022-12-24T09:50:10;99905.00;;;4.93;100.00
56174;BME280;42058;52.308;20.924;2022-12-24T09:52:54;99902.84;;;4.93;100.00
56174;BME280;42058;52.308;20.924;2022-12-24T09:55:31;99901.55;;;4.93;100.00
56174;BME280;42058;52.308;20.924;2022-12-24T09:58:01;99896.73;;;4.94;100.00
56174;BME280;42058;52.308;20.924;2022-12-24T10:00:32;99909.77;;;4.94;100.00
56174;BME280;42058;52.308;20.924;2022-12-24T10:03:00;99914.12;;;4.95;100.00
56174;BME280;42058;52.308;20.924;2022-12-24T10:05:38;99921.88;;;4.98;100.00
56174;BME280;42058;52.308;20.924;2022-12-24T10:11:29;99923.65;;;4.96;100.00
56174;BME280;42058;52.308;20.924;2022-12-24T10:31:28;99940.15;;;4.96;100.00
56174;BME280;42058;52.308;20.924;2022-12-24T10:34:11;99944.50;;;4.96;100.00
56174;BME280;42058;52.308;20.924;2022-12-24T10:36:41;99941.03;;;4.97;100.00
56174;BME280;42058;52.308;20.924;2022-12-24T10:39:23;99945.78;;;4.99;100.00
56174;BME280;42058;52.308;20.924;2022-12-24T10:41:48;99947.54;;;4.98;100.00
56174;BME280;42058;52.308;20.924;2022-12-24T10:44:19;99954.02;;;5.00;100.00
56174;BME280;42058;52.308;20.924;2022-12-24T10:46:46;99952.30;;;5.00;100.00
56174;BME280;42058;52.308;20.924;2022-12-24T10:49:15;99955.30;;;5.01;100.00
56174;BME280;42058;52.308;20.924;2022-12-24T10:52:02;99954.89;;;5.02;100.00
56174;BME280;42058;52.308;20.924;2022-12-24T10:54:27;99956.59;;;5.03;100.00
56174;BME280;42058;52.308;20.924;2022-12-24T10:57:00;99963.54;;;5.06;100.00
56174;BME280;42058;52.308;20.924;2022-12-24T10:59:41;99963.09;;;5.06;100.00
56174;BME280;42058;52.308;20.924;2022-12-24T11:02:37;99963.49;;;5.07;100.00
56174;BME280;42058;52.308;20.924;2022-12-24T11:05:26;99966.09;;;5.09;100.00
56174;BME280;42058;52.308;20.924;2022-12-24T11:07:35;99970.89;;;5.09;100.00
56174;BME280;42058;52.308;20.924;2022-12-24T11:10:04;99970.89;;;5.09;100.00
56174;BME280;42058;52.308;20.924;2022-12-24T11:12:39;99970.02;;;5.07;100.00
56174;BME280;42058;52.308;20.924;2022-12-24T11:15:30;99979.58;;;5.08;100.00
56174;BME280;42058;52.308;20.924;2022-12-24T11:17:58;99975.23;;;5.07;100.00
56174;BME280;42058;52.308;20.924;2022-12-24T11:20:28;99984.36;;;5.07;100.00
56174;BME280;42058;52.308;20.924;2022-12-24T11:22:58;99976.97;;;5.08;100.00
56174;BME280;42058;52.308;20.924;2022-12-24T11:25:28;99983.48;;;5.08;100.00
56174;BME280;42058;52.308;20.924;2022-12-24T11:28:15;99977.81;;;5.10;100.00
56174;BME280;42058;52.308;20.924;2022-12-24T11:30:37;99986.48;;;5.12;100.00
56174;BME280;42058;52.308;20.924;2022-12-24T11:35:44;99989.06;;;5.15;100.00
56174;BME280;42058;52.308;20.924;2022-12-24T11:38:21;99989.52;;;5.15;100.00
56174;BME280;42058;52.308;20.924;2022-12-24T11:41:00;99998.66;;;5.13;100.00
56174;BME280;42058;52.308;20.924;2022-12-24T11:49:21;100009.09;;;5.13;100.00
56174;BME280;42058;52.308;20.924;2022-12-24T11:55:14;100013.84;;;5.15;100.00
56174;BME280;42058;52.308;20.924;2022-12-24T11:57:49;100016.86;;;5.16;100.00
56174;BME280;42058;52.308;20.924;2022-12-24T12:00:17;100024.68;;;5.16;100.00
56174;BME280;42058;52.308;20.924;2022-12-24T12:02:45;100023.81;;;5.17;100.00
56174;BME280;42058;52.308;20.924;2022-12-24T12:05:19;100018.23;;;5.10;100.00
56174;BME280;42058;52.308;20.924;2022-12-24T12:07:49;100027.71;;;5.19;100.00
56174;BME280;42058;52.308;20.924;2022-12-24T12:10:25;100029.88;;;5.19;100.00
56174;BME280;42058;52.308;20.924;2022-12-24T12:13:04;100032.92;;;5.20;100.00
56174;BME280;42058;52.308;20.924;2022-12-24T12:15:39;100040.30;;;5.19;100.00
56174;BME280;42058;52.308;20.924;2022-12-24T12:18:28;100031.61;;;5.20;100.00
56174;BME280;42058;52.308;20.924;2022-12-24T12:21:11;100034.63;;;5.22;100.00
56174;BME280;42058;52.308;20.924;2022-12-24T12:23:46;100042.05;;;5.20;100.00
56174;BME280;42058;52.308;20.924;2022-12-24T12:26:19;100044.67;;;5.19;100.00
56174;BME280;42058;52.308;20.924;2022-12-24T12:29:04;100049.03;;;5.18;100.00
56174;BME280;42058;52.308;20.924;2022-12-24T12:31:54;100066.84;;;5.19;100.00
56174;BME280;42058;52.308;20.924;2022-12-24T12:34:30;100066.83;;;5.20;100.00
56174;BME280;42058;52.308;20.924;2022-12-24T12:37:19;100077.25;;;5.22;100.00
56174;BME280;42058;52.308;20.924;2022-12-24T12:39:47;100078.97;;;5.22;100.00
56174;BME280;42058;52.308;20.924;2022-12-24T12:42:32;100082.47;;;5.22;100.00
56174;BME280;42058;52.308;20.924;2022-12-24T12:59:07;100109.41;;;5.23;100.00
56174;BME280;42058;52.308;20.924;2022-12-24T13:04:47;100112.47;;;5.22;100.00
56174;BME280;42058;52.308;20.924;2022-12-24T13:07:46;100124.20;;;5.22;100.00
56174;BME280;42058;52.308;20.924;2022-12-24T13:14:46;100125.93;;;5.22;100.00
56174;BME280;42058;52.308;20.924;2022-12-24T13:23:09;100145.94;;;5.23;100.00
56174;BME280;42058;52.308;20.924;2022-12-24T13:25:44;100151.61;;;5.20;100.00
56174;BME280;42058;52.308;20.924;2022-12-24T13:36:10;100170.34;;;5.15;100.00
56174;BME280;42058;52.308;20.924;2022-12-24T13:38:49;100172.09;;;5.15;100.00
56174;BME280;42058;52.308;20.924;2022-12-24T13:47:15;100181.69;;;5.11;100.00
56174;BME280;42058;52.308;20.924;2022-12-24T13:49:41;100189.96;;;5.09;100.00
56174;BME280;42058;52.308;20.924;2022-12-24T13:57:28;100208.23;;;5.06;100.00
56174;BME280;42058;52.308;20.924;2022-12-24T14:03:05;100220.44;;;5.01;100.00
56174;BME280;42058;52.308;20.924;2022-12-24T14:05:36;100218.73;;;4.97;100.00
56174;BME280;42058;52.308;20.924;2022-12-24T14:08:12;100221.75;;;4.96;100.00
56174;BME280;42058;52.308;20.924;2022-12-24T14:10:43;100223.96;;;4.94;100.00
56174;BME280;42058;52.308;20.924;2022-12-24T14:16:12;100234.84;;;4.92;100.00
56174;BME280;42058;52.308;20.924;2022-12-24T14:19:12;100242.67;;;4.89;100.00
56174;BME280;42058;52.308;20.924;2022-12-24T14:24:26;100256.20;;;4.82;100.00
56174;BME280;42058;52.308;20.924;2022-12-24T14:26:58;100267.09;;;4.77;100.00
56174;BME280;42058;52.308;20.924;2022-12-24T14:29:34;100267.95;;;4.74;100.00
56174;BME280;42058;52.308;20.924;2022-12-24T14:32:14;100281.02;;;4.73;100.00
56174;BME280;42058;52.308;20.924;2022-12-24T14:34:41;100277.11;;;4.71;100.00
56174;BME280;42058;52.308;20.924;2022-12-24T14:37:09;100286.23;;;4.68;100.00
56174;BME280;42058;52.308;20.924;2022-12-24T14:39:43;100287.99;;;4.65;100.00
56174;BME280;42058;52.308;20.924;2022-12-24T14:42:24;100293.66;;;4.64;100.00
56174;BME280;42058;52.308;20.924;2022-12-24T14:48:21;100298.02;;;4.60;100.00
56174;BME280;42058;52.308;20.924;2022-12-24T14:51:07;100300.63;;;4.59;100.00
56174;BME280;42058;52.308;20.924;2022-12-24T14:53:55;100309.74;;;4.54;100.00
56174;BME280;42058;52.308;20.924;2022-12-24T14:56:28;100321.91;;;4.51;100.00